createdAt,value
2019-01-19T00:02:23.681Z,84.17
2019-01-19T00:06:23.334Z,83.76
2019-01-19T00:09:42.015Z,83.63
2019-01-19T00:13:36.446Z,83.53
2019-01-19T00:17:45.139Z,83.73
2019-01-19T00:21:42.092Z,83.80
2019-01-19T00:25:23.720Z,83.40
2019-01-19T00:28:45.210Z,83.90
2019-01-19T00:32:25.101Z,83.85
2019-01-19T00:36:11.499Z,84.05
2019-01-19T00:40:28.770Z,83.81
2019-01-19T00:43:59.470Z,83.69
2019-01-19T00:47:39.008Z,83.93
2019-01-19T00:51:51.308Z,83.31
2019-01-19T00:56:15.470Z,83.88
2019-01-19T00:59:31.509Z,84.10
2019-01-19T01:03:40.582Z,83.55
2019-01-19T01:07:40.683Z,84.21
2019-01-19T01:11:32.005Z,83.92
2019-01-19T01:15:53.411Z,83.29
2019-01-19T01:19:59.071Z,83.45
2019-01-19T01:23:58.840Z,83.09
2019-01-19T01:28:13.028Z,82.83
2019-01-19T01:32:13.989Z,83.07
2019-01-19T01:36:29.275Z,82.26
2019-01-19T01:40:19.873Z,81.81
2019-01-19T01:44:00.431Z,82.46
2019-01-19T01:47:55.996Z,82.86
2019-01-19T01:51:37.614Z,83.07
2019-01-19T01:55:16.745Z,82.68
2019-01-19T01:59:03.518Z,82.63
2019-01-19T02:03:15.941Z,82.62
2019-01-19T02:06:56.672Z,82.31
2019-01-19T02:10:34.080Z,82.01
2019-01-19T02:14:03.276Z,81.66
2019-01-19T02:18:13.274Z,81.34
2019-01-19T02:22:01.860Z,82.49
2019-01-19T02:25:58.714Z,82.12
2019-01-19T02:30:08.433Z,81.67
2019-01-19T02:33:57.646Z,82.79
2019-01-19T02:38:04.802Z,82.12
2019-01-19T02:42:24.288Z,82.37
2019-01-19T02:46:30.191Z,82.47
2019-01-19T02:50:25.805Z,82.66
2019-01-19T02:54:31.152Z,81.33
2019-01-19T02:58:09.396Z,81.83
2019-01-19T03:02:02.820Z,81.94
2019-01-19T03:05:56.142Z,81.83
2019-01-19T03:10:02.076Z,82.34
2019-01-19T03:14:12.098Z,82.38
2019-01-19T03:18:09.166Z,81.92
2019-01-19T03:22:11.901Z,81.98
2019-01-19T03:26:05.243Z,82.25
2019-01-19T03:29:55.070Z,81.81
2019-01-19T03:33:42.075Z,81.54
2019-01-19T03:37:39.003Z,82.12
2019-01-19T03:41:53.426Z,81.37
2019-01-19T03:45:42.691Z,81.27
2019-01-19T03:50:01.517Z,81.79
2019-01-19T03:53:56.144Z,82.16
2019-01-19T03:58:01.907Z,81.81
2019-01-19T04:02:09.739Z,82.02
2019-01-19T04:06:14.635Z,82.16
2019-01-19T04:10:14.101Z,82.45
2019-01-19T04:14:30.852Z,82.31
2019-01-19T04:18:20.409Z,82.05
2019-01-19T04:22:05.419Z,81.91
2019-01-19T04:26:08.215Z,81.30
2019-01-19T04:29:15.667Z,81.35
2019-01-19T04:32:22.559Z,81.30
2019-01-19T04:35:29.482Z,81.44
2019-01-19T04:38:38.039Z,81.31
2019-01-19T04:41:45.047Z,81.11
2019-01-19T04:44:51.930Z,81.23
2019-01-19T04:47:58.861Z,81.04
2019-01-19T04:51:06.035Z,80.54
2019-01-19T04:54:13.205Z,80.45
2019-01-19T04:57:20.102Z,80.33
2019-01-19T05:00:27.034Z,80.47
2019-01-19T05:03:33.919Z,80.41
2019-01-19T05:06:40.858Z,81.33
2019-01-19T05:09:47.866Z,81.38
2019-01-19T05:12:54.812Z,80.39
2019-01-19T05:16:01.779Z,81.15
2019-01-19T05:19:08.693Z,81.11
2019-01-19T05:22:15.632Z,81.82
2019-01-19T05:25:22.559Z,82.05
2019-01-19T05:28:29.444Z,81.74
2019-01-19T05:31:36.470Z,81.31
2019-01-19T05:34:43.826Z,81.46
2019-01-19T05:37:50.765Z,81.55
2019-01-19T05:40:57.657Z,81.15
2019-01-19T05:44:04.586Z,80.70
2019-01-19T05:47:11.654Z,80.63
2019-01-19T05:50:23.576Z,80.72
2019-01-19T05:53:30.798Z,80.96
2019-01-19T05:56:37.730Z,80.58
2019-01-19T05:59:44.613Z,79.79
2019-01-19T06:02:51.553Z,80.26
2019-01-19T06:05:58.811Z,80.36
2019-01-19T06:09:08.947Z,80.47
2019-01-19T06:12:15.964Z,81.21
2019-01-19T06:15:23.394Z,81.06
2019-01-19T06:18:32.265Z,80.85
2019-01-19T06:21:47.896Z,81.02
2019-01-19T06:24:54.797Z,80.74
2019-01-19T06:28:01.725Z,81.05
2019-01-19T06:31:08.736Z,81.36
2019-01-19T06:34:15.781Z,81.57
2019-01-19T06:37:22.823Z,81.35
2019-01-19T06:40:29.760Z,81.31
2019-01-19T06:43:36.641Z,81.22
2019-01-19T06:46:43.567Z,81.19
2019-01-19T06:49:50.446Z,80.97
2019-01-19T06:52:57.366Z,81.42
2019-01-19T06:56:04.529Z,81.05
2019-01-19T06:59:17.386Z,80.84
2019-01-19T07:02:20.108Z,81.50
2019-01-19T07:05:27.040Z,81.25
2019-01-19T07:08:33.935Z,80.82
2019-01-19T07:11:41.376Z,81.72
2019-01-19T07:14:48.260Z,80.94
2019-01-19T07:17:55.217Z,79.61
2019-01-19T07:21:02.119Z,80.05
2019-01-19T07:24:09.051Z,79.97
2019-01-19T07:27:17.117Z,79.72
2019-01-19T07:30:24.053Z,80.60
2019-01-19T07:33:31.052Z,80.63
2019-01-19T07:36:38.016Z,79.94
2019-01-19T07:39:44.911Z,80.05
2019-01-19T07:42:56.791Z,80.02
2019-01-19T07:46:05.133Z,79.81
2019-01-19T07:49:14.661Z,79.20
2019-01-19T07:52:21.569Z,79.67
2019-01-19T07:55:28.472Z,78.96
2019-01-19T07:58:36.585Z,78.76
2019-01-19T08:01:43.582Z,78.86
2019-01-19T08:04:50.490Z,78.56
2019-01-19T08:07:57.446Z,79.02
2019-01-19T08:11:04.473Z,79.08
2019-01-19T08:14:12.841Z,79.03
2019-01-19T08:17:19.733Z,79.25
2019-01-19T08:20:26.724Z,79.26
2019-01-19T08:23:35.321Z,78.21
2019-01-19T08:26:42.604Z,77.96
2019-01-19T08:29:49.977Z,77.67
2019-01-19T08:32:57.156Z,77.96
2019-01-19T08:36:04.854Z,77.67
2019-01-19T08:39:12.449Z,77.52
2019-01-19T08:42:36.573Z,77.39
2019-01-19T08:45:45.265Z,77.20
2019-01-19T08:48:52.634Z,77.30
2019-01-19T08:51:59.871Z,76.14
2019-01-19T08:55:23.558Z,76.37
2019-01-19T08:58:33.072Z,76.13
2019-01-19T09:01:55.073Z,76.48
2019-01-19T09:05:05.311Z,76.45
2019-01-19T09:08:15.595Z,76.25
2019-01-19T09:11:23.784Z,76.15
2019-01-19T09:14:31.061Z,75.82
2019-01-19T09:17:45.538Z,76.37
2019-01-19T09:24:44.209Z,76.00
2019-01-19T09:27:51.118Z,74.53
2019-01-19T09:30:58.119Z,75.09
2019-01-19T09:34:05.428Z,75.57
2019-01-19T09:37:12.555Z,75.26
2019-01-19T09:40:20.028Z,74.60
2019-01-19T09:43:27.204Z,74.30
2019-01-19T09:46:34.114Z,74.50
2019-01-19T09:49:41.862Z,75.50
2019-01-19T09:52:48.775Z,74.87
2019-01-19T09:55:55.848Z,75.68
2019-01-19T09:59:02.757Z,74.28
2019-01-19T10:02:12.508Z,72.94
2019-01-19T10:05:22.104Z,71.79
2019-01-19T10:08:29.020Z,70.68
2019-01-19T10:11:36.189Z,70.82
2019-01-19T10:14:43.185Z,71.42
2019-01-19T10:17:50.166Z,71.98
2019-01-19T10:20:57.597Z,71.24
2019-01-19T10:24:04.670Z,73.94
2019-01-19T10:27:13.490Z,73.65
2019-01-19T10:30:24.569Z,71.52
2019-01-19T10:33:32.702Z,71.70
2019-01-19T10:36:39.878Z,71.53
2019-01-19T10:39:47.228Z,70.70
2019-01-19T10:42:54.207Z,71.29
2019-01-19T10:46:03.860Z,71.76
2019-01-19T10:49:15.089Z,69.84
2019-01-19T10:52:23.158Z,70.50
2019-01-19T10:55:33.154Z,68.39
2019-01-19T10:58:42.040Z,67.97
2019-01-19T11:01:50.665Z,68.72
2019-01-19T11:05:00.299Z,68.69
2019-01-19T11:08:12.280Z,69.98
2019-01-19T11:11:21.171Z,68.79
2019-01-19T11:14:29.955Z,68.33
2019-01-19T11:17:37.699Z,64.86
2019-01-19T11:20:44.628Z,66.30
2019-01-19T11:23:51.719Z,66.02
2019-01-19T11:26:58.757Z,65.78
2019-01-19T11:30:06.887Z,65.62
2019-01-19T11:33:14.384Z,64.56
2019-01-19T11:36:23.823Z,64.61
2019-01-19T11:39:31.085Z,64.56
2019-01-19T11:42:38.012Z,65.12
2019-01-19T11:45:46.747Z,64.72
2019-01-19T11:48:54.362Z,64.30
2019-01-19T11:52:01.266Z,61.92
2019-01-19T11:55:11.182Z,63.92
2019-01-19T11:58:19.423Z,63.20
2019-01-19T12:01:26.421Z,63.57
2019-01-19T12:04:33.295Z,64.82
2019-01-19T12:07:41.561Z,59.31
2019-01-19T12:10:48.599Z,63.62
2019-01-19T12:13:56.384Z,60.49
2019-01-19T12:17:03.263Z,59.63
2019-01-19T12:20:19.877Z,60.03
2019-01-19T12:23:26.795Z,62.77
2019-01-19T12:26:33.847Z,57.23
2019-01-19T12:29:40.734Z,59.00
2019-01-19T12:32:47.705Z,62.36
2019-01-19T12:35:54.718Z,60.97
2019-01-19T12:39:01.658Z,60.87
2019-01-19T12:42:09.806Z,57.66
2019-01-19T12:45:27.986Z,56.50
2019-01-19T12:48:34.895Z,55.06
2019-01-19T12:51:42.397Z,55.08
2019-01-19T12:54:49.531Z,56.65
2019-01-19T12:57:56.616Z,53.48
2019-01-19T13:01:03.959Z,52.06
2019-01-19T13:04:11.976Z,54.90
2019-01-19T13:07:19.240Z,55.51
2019-01-19T13:10:40.713Z,54.25
2019-01-19T13:13:52.244Z,55.70
2019-01-19T13:17:49.608Z,54.12
2019-01-19T13:22:00.593Z,51.48
2019-01-19T13:25:49.034Z,55.71
2019-01-19T13:29:47.361Z,58.77
2019-01-19T13:33:55.325Z,60.21
2019-01-19T13:38:02.402Z,60.32
2019-01-19T13:41:56.389Z,58.99
2019-01-19T13:46:00.304Z,57.07
2019-01-19T13:49:58.376Z,58.90
2019-01-19T13:54:20.807Z,61.45
2019-01-19T13:58:02.183Z,60.78
2019-01-19T14:02:01.830Z,60.64
2019-01-19T14:05:56.506Z,63.12
2019-01-19T14:09:51.030Z,63.50
2019-01-19T14:13:51.216Z,61.06
2019-01-19T14:18:19.495Z,61.69
2019-01-19T14:22:15.804Z,64.43
2019-01-19T14:26:33.463Z,63.44
2019-01-19T14:30:38.952Z,61.84
2019-01-19T14:34:20.031Z,66.19
2019-01-19T14:38:25.246Z,64.74
2019-01-19T14:42:27.136Z,65.39
2019-01-19T14:46:16.508Z,65.72
2019-01-19T14:50:31.910Z,66.00
2019-01-19T14:54:37.291Z,67.39
2019-01-19T14:58:36.240Z,69.01
2019-01-19T15:02:51.553Z,71.24
2019-01-19T15:07:01.506Z,71.25
2019-01-19T15:10:53.029Z,70.57
2019-01-19T15:14:50.637Z,69.45
2019-01-19T15:18:57.184Z,70.27
2019-01-19T15:22:50.629Z,67.48
2019-01-19T15:27:21.849Z,69.97
2019-01-19T15:31:08.013Z,70.16
2019-01-19T15:35:19.011Z,69.64
2019-01-19T15:39:40.963Z,71.67
2019-01-19T15:43:34.722Z,71.94
2019-01-19T15:47:30.966Z,72.91
2019-01-19T15:51:33.600Z,72.89
2019-01-19T15:55:11.334Z,72.52
2019-01-19T15:59:14.350Z,72.29
2019-01-19T16:03:42.632Z,72.52
2019-01-19T16:07:21.326Z,73.99
2019-01-19T16:11:55.801Z,73.38
2019-01-19T16:16:13.610Z,72.15
2019-01-19T16:20:17.486Z,75.19
2019-01-19T16:24:12.393Z,71.08
2019-01-19T16:28:27.246Z,72.98
2019-01-19T16:32:19.668Z,73.66
2019-01-19T16:35:55.888Z,73.02
2019-01-19T16:40:09.061Z,72.49
2019-01-19T16:43:53.706Z,71.60
2019-01-19T16:47:50.904Z,71.99
2019-01-19T16:52:03.510Z,71.82
2019-01-19T16:56:01.325Z,71.77
2019-01-19T17:00:09.401Z,74.53
2019-01-19T17:04:02.280Z,72.54
2019-01-19T17:08:04.027Z,72.24
2019-01-19T17:12:22.255Z,72.26
2019-01-19T17:16:05.099Z,72.37
2019-01-19T17:19:57.099Z,71.96
2019-01-19T17:23:34.219Z,72.54
2019-01-19T17:27:25.874Z,73.07
2019-01-19T17:31:34.193Z,71.91
2019-01-19T17:35:33.419Z,71.27
2019-01-19T17:39:29.215Z,71.89
2019-01-19T17:44:06.571Z,72.26
2019-01-19T17:47:45.046Z,71.51
2019-01-19T17:51:44.683Z,72.15
2019-01-19T17:55:57.396Z,72.34
2019-01-19T18:00:02.357Z,73.28
2019-01-19T18:03:49.156Z,72.57
2019-01-19T18:08:01.544Z,72.90
2019-01-19T18:12:20.109Z,74.41
2019-01-19T18:16:29.534Z,74.84
2019-01-19T18:20:13.991Z,73.79
2019-01-19T18:24:25.914Z,74.58
2019-01-19T18:28:30.712Z,74.46
2019-01-19T18:32:39.746Z,74.93
2019-01-19T18:36:30.287Z,75.23
2019-01-19T18:40:36.678Z,75.08
2019-01-19T18:44:39.400Z,75.00
2019-01-19T18:48:47.219Z,75.07
2019-01-19T18:52:37.479Z,75.00
2019-01-19T18:56:46.441Z,75.87
2019-01-19T19:00:47.980Z,75.52
2019-01-19T19:04:55.221Z,76.66
2019-01-19T19:08:40.256Z,76.34
2019-01-19T19:12:47.107Z,75.93
2019-01-19T19:16:35.926Z,75.27
2019-01-19T19:20:10.156Z,77.45
2019-01-19T19:24:08.531Z,77.37
2019-01-19T19:28:08.998Z,77.15
2019-01-19T19:32:00.779Z,77.64
2019-01-19T19:36:18.970Z,76.91
2019-01-19T19:40:24.264Z,76.56
2019-01-19T19:44:12.263Z,77.61
2019-01-19T19:48:05.608Z,76.73
2019-01-19T19:52:07.311Z,76.48
2019-01-19T19:55:12.725Z,76.13
2019-01-19T19:58:20.293Z,76.38
2019-01-19T20:01:28.081Z,76.62
2019-01-19T20:04:35.966Z,76.65
2019-01-19T20:07:44.374Z,76.58
2019-01-19T20:10:52.789Z,76.35
2019-01-19T20:14:01.454Z,76.14
2019-01-19T20:17:10.785Z,76.92
2019-01-19T20:20:18.376Z,76.84
2019-01-19T20:23:27.399Z,77.08
2019-01-19T20:26:35.448Z,77.15
2019-01-19T20:29:44.008Z,76.78
2019-01-19T20:32:52.131Z,76.74
2019-01-19T20:36:03.264Z,77.32
2019-01-19T20:39:13.036Z,77.05
2019-01-19T20:42:23.489Z,77.42
2019-01-19T20:45:31.756Z,76.92
2019-01-19T20:48:40.062Z,77.03
2019-01-19T20:51:51.301Z,77.54
2019-01-19T20:55:10.342Z,77.98
2019-01-19T20:58:17.968Z,77.78
2019-01-19T21:01:25.685Z,78.53
2019-01-19T21:04:34.450Z,78.77
2019-01-19T21:07:42.681Z,78.46
2019-01-19T21:10:50.822Z,78.85
2019-01-19T21:13:59.678Z,78.54
2019-01-19T21:17:08.226Z,78.80
2019-01-19T21:20:17.524Z,79.22
2019-01-19T21:23:25.930Z,79.09
2019-01-19T21:26:35.002Z,79.21
2019-01-19T21:29:44.238Z,79.13
2019-01-19T21:32:52.740Z,79.35
2019-01-19T21:36:00.600Z,79.74
2019-01-19T21:39:10.383Z,79.46
2019-01-19T21:42:18.582Z,79.66
2019-01-19T21:45:26.617Z,80.25
2019-01-19T21:48:34.523Z,80.99
2019-01-19T21:51:44.417Z,80.00
2019-01-19T21:54:52.379Z,80.04
2019-01-19T21:58:00.218Z,80.94
2019-01-19T22:01:08.915Z,80.74
2019-01-19T22:04:20.145Z,82.55
2019-01-19T22:07:28.300Z,81.67
2019-01-19T22:10:36.375Z,81.00
2019-01-19T22:13:43.928Z,81.24
2019-01-19T22:16:52.405Z,81.36
2019-01-19T22:20:00.460Z,81.35
2019-01-19T22:23:08.369Z,81.38
2019-01-19T22:26:18.601Z,81.76
2019-01-19T22:29:26.471Z,81.95
2019-01-19T22:32:34.624Z,83.18
2019-01-19T22:35:43.086Z,83.78
2019-01-19T22:38:51.482Z,83.70
2019-01-19T22:42:00.172Z,82.98
2019-01-19T22:45:11.451Z,84.66
2019-01-19T22:48:19.449Z,84.31
2019-01-19T22:51:27.955Z,84.74
2019-01-19T22:54:36.230Z,84.81
2019-01-19T22:57:44.522Z,86.04
2019-01-19T23:01:39.646Z,86.29
2019-01-19T23:04:48.003Z,84.89
2019-01-19T23:07:56.036Z,83.37
2019-01-19T23:11:03.271Z,84.10
2019-01-19T23:14:13.029Z,83.62
2019-01-19T23:17:20.644Z,84.01
2019-01-19T23:20:28.608Z,86.75
2019-01-19T23:23:37.642Z,84.95
2019-01-19T23:26:46.298Z,83.82
2019-01-19T23:29:54.205Z,83.12
2019-01-19T23:33:03.436Z,83.25
2019-01-19T23:36:11.358Z,85.55
2019-01-19T23:39:19.396Z,87.18
2019-01-19T23:42:28.635Z,86.18
2019-01-19T23:45:36.381Z,85.25
2019-01-19T23:48:44.662Z,84.10
2019-01-19T23:51:52.663Z,83.89
2019-01-19T23:55:00.713Z,83.14
2019-01-19T23:58:08.665Z,83.69
